sensor_id;sensor_type;location;lat;lon;timestamp;pressure;altitude;pressure_sealevel;temperature;humidity
32735;BME280;19112;51.076;3.706;2023-05-10T00:00:53;100750.25;;;15.85;84.70
32735;BME280;19112;51.076;3.706;2023-05-10T00:03:18;100783.09;;;16.05;84.52
32735;BME280;19112;51.076;3.706;2023-05-10T00:05:44;100728.03;;;15.70;85.07
32735;BME280;19112;51.076;3.706;2023-05-10T00:08:10;100729.88;;;15.78;85.28
32735;BME280;19112;51.076;3.706;2023-05-10T00:10:36;100535.53;;;14.63;85.34
32735;BME280;19112;51.076;3.706;2023-05-10T00:13:03;100717.38;;;15.64;85.65
32735;BME280;19112;51.076;3.706;2023-05-10T00:15:29;100790.19;;;16.08;85.83
32735;BME280;19112;51.076;3.706;2023-05-10T00:17:56;100765.34;;;15.95;86.60
32735;BME280;19112;51.076;3.706;2023-05-10T00:20:22;100661.50;;;15.38;86.52
32735;BME280;19112;51.076;3.706;2023-05-10T00:22:48;100653.56;;;15.37;86.69
32735;BME280;19112;51.076;3.706;2023-05-10T00:25:14;100689.19;;;15.69;86.79
32735;BME280;19112;51.076;3.706;2023-05-10T00:27:40;100739.91;;;16.12;86.60
32735;BME280;19112;51.076;3.706;2023-05-10T00:30:07;100654.75;;;15.63;86.67
32735;BME280;19112;51.076;3.706;2023-05-10T00:32:33;100794.03;;;16.43;86.73
32735;BME280;19112;51.076;3.706;2023-05-10T00:34:59;100625.44;;;15.46;87.14
32735;BME280;19112;51.076;3.706;2023-05-10T00:37:24;100799.38;;;16.51;86.97
32735;BME280;19112;51.076;3.706;2023-05-10T00:39:50;100714.16;;;15.96;86.76
32735;BME280;19112;51.076;3.706;2023-05-10T00:42:16;100663.72;;;15.79;86.26
32735;BME280;19112;51.076;3.706;2023-05-10T00:44:42;100600.72;;;15.43;86.21
32735;BME280;19112;51.076;3.706;2023-05-10T00:47:08;100703.56;;;15.93;86.39
32735;BME280;19112;51.076;3.706;2023-05-10T00:49:35;100826.03;;;16.63;86.44
32735;BME280;19112;51.076;3.706;2023-05-10T00:52:02;100799.16;;;16.23;86.76
32735;BME280;19112;51.076;3.706;2023-05-10T00:54:28;100756.72;;;16.14;86.75
32735;BME280;19112;51.076;3.706;2023-05-10T00:56:54;100767.31;;;16.19;86.59
32735;BME280;19112;51.076;3.706;2023-05-10T00:59:22;100650.19;;;15.52;86.69
32735;BME280;19112;51.076;3.706;2023-05-10T01:01:49;100727.28;;;15.82;87.27
32735;BME280;19112;51.076;3.706;2023-05-10T01:04:15;100735.34;;;15.94;87.34
32735;BME280;19112;51.076;3.706;2023-05-10T01:06:42;100723.78;;;15.86;87.12
32735;BME280;19112;51.076;3.706;2023-05-10T01:09:08;100832.13;;;16.56;86.58
32735;BME280;19112;51.076;3.706;2023-05-10T01:11:36;100830.34;;;16.54;86.75
32735;BME280;19112;51.076;3.706;2023-05-10T01:14:03;100758.44;;;16.11;86.27
32735;BME280;19112;51.076;3.706;2023-05-10T01:16:32;100794.88;;;16.36;86.38
32735;BME280;19112;51.076;3.706;2023-05-10T01:18:59;100753.06;;;16.03;86.44
32735;BME280;19112;51.076;3.706;2023-05-10T01:22:02;100801.91;;;16.31;86.31
32735;BME280;19112;51.076;3.706;2023-05-10T01:41:16;100863.63;;;16.24;87.26
32735;BME280;19112;51.076;3.706;2023-05-10T01:46:32;100855.72;;;16.27;86.96
32735;BME280;19112;51.076;3.706;2023-05-10T01:49:01;100752.38;;;15.42;86.72
32735;BME280;19112;51.076;3.706;2023-05-10T01:51:36;100865.34;;;16.19;87.09
32735;BME280;19112;51.076;3.706;2023-05-10T01:54:05;100832.44;;;15.94;87.17
32735;BME280;19112;51.076;3.706;2023-05-10T01:56:33;100789.78;;;15.69;86.63
32735;BME280;19112;51.076;3.706;2023-05-10T01:59:08;100828.84;;;15.89;86.82
32735;BME280;19112;51.076;3.706;2023-05-10T02:01:37;100878.53;;;16.13;87.17
32735;BME280;19112;51.076;3.706;2023-05-10T02:04:08;100798.59;;;15.68;87.46
32735;BME280;19112;51.076;3.706;2023-05-10T02:06:36;100855.38;;;15.95;87.50
32735;BME280;19112;51.076;3.706;2023-05-10T02:09:04;100830.41;;;15.73;87.10
32735;BME280;19112;51.076;3.706;2023-05-10T02:11:31;100785.00;;;15.41;87.11
32735;BME280;19112;51.076;3.706;2023-05-10T02:13:59;100843.72;;;15.81;87.38
32735;BME280;19112;51.076;3.706;2023-05-10T02:16:27;100897.88;;;16.07;87.76
32735;BME280;19112;51.076;3.706;2023-05-10T02:18:54;100810.13;;;15.72;87.61
32735;BME280;19112;51.076;3.706;2023-05-10T02:21:23;100859.75;;;15.91;87.30
32735;BME280;19112;51.076;3.706;2023-05-10T02:23:51;100818.75;;;15.60;87.38
32735;BME280;19112;51.076;3.706;2023-05-10T02:26:18;100877.19;;;15.76;87.44
32735;BME280;19112;51.076;3.706;2023-05-10T02:28:45;100743.09;;;15.03;87.89
32735;BME280;19112;51.076;3.706;2023-05-10T02:31:12;100883.28;;;15.68;87.57
32735;BME280;19112;51.076;3.706;2023-05-10T02:33:40;100898.63;;;15.95;87.74
32735;BME280;19112;51.076;3.706;2023-05-10T02:36:08;100814.88;;;15.34;88.07
32735;BME280;19112;51.076;3.706;2023-05-10T02:38:35;100914.44;;;15.89;88.42
32735;BME280;19112;51.076;3.706;2023-05-10T02:41:03;100746.63;;;15.05;88.27
32735;BME280;19112;51.076;3.706;2023-05-10T02:43:32;100911.13;;;16.06;88.41
32735;BME280;19112;51.076;3.706;2023-05-10T02:45:59;100906.75;;;16.11;87.65
32735;BME280;19112;51.076;3.706;2023-05-10T02:48:24;100906.66;;;16.03;87.93
32735;BME280;19112;51.076;3.706;2023-05-10T02:50:52;100789.34;;;15.34;87.72
32735;BME280;19112;51.076;3.706;2023-05-10T02:53:23;100862.19;;;15.73;88.07
32735;BME280;19112;51.076;3.706;2023-05-10T02:55:52;100891.56;;;15.96;87.90
32735;BME280;19112;51.076;3.706;2023-05-10T02:58:22;100906.69;;;16.06;87.47
32735;BME280;19112;51.076;3.706;2023-05-10T03:00:48;100733.44;;;15.07;87.39
32735;BME280;19112;51.076;3.706;2023-05-10T03:03:14;100911.13;;;16.07;87.44
32735;BME280;19112;51.076;3.706;2023-05-10T03:05:40;100833.84;;;15.64;87.26
32735;BME280;19112;51.076;3.706;2023-05-10T03:08:06;100828.38;;;15.55;87.19
32735;BME280;19112;51.076;3.706;2023-05-10T03:10:33;100791.88;;;15.28;87.69
32735;BME280;19112;51.076;3.706;2023-05-10T03:13:21;100813.22;;;15.40;88.07
32735;BME280;19112;51.076;3.706;2023-05-10T03:16:22;100929.66;;;16.04;88.25
32735;BME280;19112;51.076;3.706;2023-05-10T03:19:30;100921.69;;;16.04;88.03
32735;BME280;19112;51.076;3.706;2023-05-10T03:22:03;100898.59;;;15.92;88.14
32735;BME280;19112;51.076;3.706;2023-05-10T03:24:30;100888.78;;;15.84;87.99
32735;BME280;19112;51.076;3.706;2023-05-10T03:27:00;100715.50;;;14.84;87.73
32735;BME280;19112;51.076;3.706;2023-05-10T03:29:30;100891.31;;;15.76;88.04
32735;BME280;19112;51.076;3.706;2023-05-10T03:31:58;100856.72;;;15.62;88.17
32735;BME280;19112;51.076;3.706;2023-05-10T03:34:25;100900.94;;;15.66;88.07
32735;BME280;19112;51.076;3.706;2023-05-10T03:36:51;100933.94;;;15.97;88.16
32735;BME280;19112;51.076;3.706;2023-05-10T03:39:17;100938.28;;;15.92;88.15
32735;BME280;19112;51.076;3.706;2023-05-10T03:41:43;100850.28;;;15.43;88.15
32735;BME280;19112;51.076;3.706;2023-05-10T03:44:09;100872.56;;;15.59;88.35
32735;BME280;19112;51.076;3.706;2023-05-10T03:46:35;100775.63;;;14.99;88.15
32735;BME280;19112;51.076;3.706;2023-05-10T03:49:01;100901.16;;;15.85;88.13
32735;BME280;19112;51.076;3.706;2023-05-10T03:51:27;100708.38;;;14.76;87.60
32735;BME280;19112;51.076;3.706;2023-05-10T03:53:54;100832.78;;;15.53;87.36
32735;BME280;19112;51.076;3.706;2023-05-10T03:56:21;100791.88;;;15.27;87.22
32735;BME280;19112;51.076;3.706;2023-05-10T03:58:47;100844.31;;;15.58;87.38
32735;BME280;19112;51.076;3.706;2023-05-10T04:01:13;100886.91;;;15.74;86.90
32735;BME280;19112;51.076;3.706;2023-05-10T04:03:38;100947.38;;;16.13;86.54
32735;BME280;19112;51.076;3.706;2023-05-10T04:06:05;100934.06;;;16.07;86.27
32735;BME280;19112;51.076;3.706;2023-05-10T04:08:31;100832.75;;;15.50;86.28
32735;BME280;19112;51.076;3.706;2023-05-10T04:11:08;100753.84;;;15.17;86.66
32735;BME280;19112;51.076;3.706;2023-05-10T04:13:34;100948.44;;;16.26;86.30
32735;BME280;19112;51.076;3.706;2023-05-10T04:16:00;100913.72;;;16.03;86.60
32735;BME280;19112;51.076;3.706;2023-05-10T04:18:26;100951.16;;;16.30;85.90
32735;BME280;19112;51.076;3.706;2023-05-10T04:20:52;100914.72;;;16.14;85.74
32735;BME280;19112;51.076;3.706;2023-05-10T04:23:18;100955.63;;;16.39;86.01
32735;BME280;19112;51.076;3.706;2023-05-10T04:25:44;100944.22;;;16.43;85.46
32735;BME280;19112;51.076;3.706;2023-05-10T04:28:10;100939.72;;;16.37;85.45
32735;BME280;19112;51.076;3.706;2023-05-10T04:30:36;100855.19;;;15.80;85.51
32735;BME280;19112;51.076;3.706;2023-05-10T04:33:02;100909.41;;;16.11;85.61
32735;BME280;19112;51.076;3.706;2023-05-10T04:35:28;100910.34;;;16.14;86.04
32735;BME280;19112;51.076;3.706;2023-05-10T04:37:54;100905.94;;;16.16;85.45
32735;BME280;19112;51.076;3.706;2023-05-10T04:40:20;100873.09;;;16.02;85.65
32735;BME280;19112;51.076;3.706;2023-05-10T04:42:46;100842.94;;;15.88;85.29
32735;BME280;19112;51.076;3.706;2023-05-10T04:45:13;100957.63;;;16.61;85.20
32735;BME280;19112;51.076;3.706;2023-05-10T04:47:40;100926.59;;;16.46;84.92
32735;BME280;19112;51.076;3.706;2023-05-10T04:50:07;100896.34;;;16.29;84.90
32735;BME280;19112;51.076;3.706;2023-05-10T04:52:33;100947.84;;;16.53;84.83
32735;BME280;19112;51.076;3.706;2023-05-10T04:54:59;100969.09;;;16.57;84.26
32735;BME280;19112;51.076;3.706;2023-05-10T04:57:25;100848.09;;;15.76;83.93
32735;BME280;19112;51.076;3.706;2023-05-10T04:59:51;100878.44;;;16.05;84.55
32735;BME280;19112;51.076;3.706;2023-05-10T05:02:17;100777.09;;;15.44;84.42
32735;BME280;19112;51.076;3.706;2023-05-10T05:04:42;100794.09;;;15.61;84.45
32735;BME280;19112;51.076;3.706;2023-05-10T05:07:08;100877.56;;;16.06;84.20
32735;BME280;19112;51.076;3.706;2023-05-10T05:09:34;100844.69;;;15.86;83.83
32735;BME280;19112;51.076;3.706;2023-05-10T05:12:00;100880.34;;;16.15;84.20
32735;BME280;19112;51.076;3.706;2023-05-10T05:14:26;100923.06;;;16.49;83.74
32735;BME280;19112;51.076;3.706;2023-05-10T05:16:52;100915.06;;;16.43;84.06
32735;BME280;19112;51.076;3.706;2023-05-10T05:19:18;100891.06;;;16.29;84.30
32735;BME280;19112;51.076;3.706;2023-05-10T05:21:44;100905.34;;;16.42;84.11
32735;BME280;19112;51.076;3.706;2023-05-10T05:24:10;100906.28;;;16.48;83.85
32735;BME280;19112;51.076;3.706;2023-05-10T05:26:38;100976.44;;;16.83;84.22
32735;BME280;19112;51.076;3.706;2023-05-10T05:29:04;100910.63;;;16.42;84.05
32735;BME280;19112;51.076;3.706;2023-05-10T05:31:30;100861.84;;;16.23;84.16
32735;BME280;19112;51.076;3.706;2023-05-10T05:33:56;100944.53;;;16.72;84.33
32735;BME280;19112;51.076;3.706;2023-05-10T05:36:22;100903.63;;;16.47;84.25
32735;BME280;19112;51.076;3.706;2023-05-10T05:38:48;100981.84;;;16.89;84.17
32735;BME280;19112;51.076;3.706;2023-05-10T05:41:14;100835.16;;;16.03;84.74
32735;BME280;19112;51.076;3.706;2023-05-10T05:43:39;100960.53;;;16.83;84.77
32735;BME280;19112;51.076;3.706;2023-05-10T05:46:05;100914.47;;;16.71;84.21
32735;BME280;19112;51.076;3.706;2023-05-10T05:48:31;100951.84;;;16.99;84.74
32735;BME280;19112;51.076;3.706;2023-05-10T05:50:57;100998.03;;;17.25;84.87
32735;BME280;19112;51.076;3.706;2023-05-10T05:53:24;100995.47;;;17.33;84.50
32735;BME280;19112;51.076;3.706;2023-05-10T05:55:55;100919.16;;;17.01;83.93
32735;BME280;19112;51.076;3.706;2023-05-10T05:58:25;100925.41;;;17.07;83.38
32735;BME280;19112;51.076;3.706;2023-05-10T06:00:51;100911.22;;;17.03;83.30
32735;BME280;19112;51.076;3.706;2023-05-10T06:03:18;100941.47;;;17.28;83.31
32735;BME280;19112;51.076;3.706;2023-05-10T06:05:44;100959.34;;;17.53;83.09
32735;BME280;19112;51.076;3.706;2023-05-10T06:08:10;100878.56;;;17.15;83.31
32735;BME280;19112;51.076;3.706;2023-05-10T06:10:36;101008.31;;;17.95;83.13
32735;BME280;19112;51.076;3.706;2023-05-10T06:13:02;100820.09;;;16.95;83.14
32735;BME280;19112;51.076;3.706;2023-05-10T06:15:28;100979.09;;;18.00;82.65
32735;BME280;19112;51.076;3.706;2023-05-10T06:17:54;100909.78;;;17.55;82.05
32735;BME280;19112;51.076;3.706;2023-05-10T06:20:20;100829.94;;;17.13;82.02
32735;BME280;19112;51.076;3.706;2023-05-10T06:22:46;101002.22;;;18.18;82.27
32735;BME280;19112;51.076;3.706;2023-05-10T06:25:12;100933.03;;;17.92;81.42
32735;BME280;19112;51.076;3.706;2023-05-10T06:27:38;100989.81;;;18.12;81.07
32735;BME280;19112;51.076;3.706;2023-05-10T06:30:05;101033.31;;;18.32;81.29
32735;BME280;19112;51.076;3.706;2023-05-10T06:32:31;100967.50;;;17.84;80.71
32735;BME280;19112;51.076;3.706;2023-05-10T06:34:56;100803.00;;;16.61;79.24
32735;BME280;19112;51.076;3.706;2023-05-10T06:37:22;100932.66;;;17.34;80.27
32735;BME280;19112;51.076;3.706;2023-05-10T06:39:48;100839.44;;;16.79;80.97
32735;BME280;19112;51.076;3.706;2023-05-10T06:42:14;100915.03;;;17.46;81.07
32735;BME280;19112;51.076;3.706;2023-05-10T06:44:40;100856.50;;;17.19;80.65
32735;BME280;19112;51.076;3.706;2023-05-10T06:47:06;100997.69;;;17.97;81.10
32735;BME280;19112;51.076;3.706;2023-05-10T06:49:31;100968.47;;;18.00;81.90
32735;BME280;19112;51.076;3.706;2023-05-10T06:51:57;100961.53;;;18.29;81.24
32735;BME280;19112;51.076;3.706;2023-05-10T06:54:23;101001.56;;;18.75;81.35
32735;BME280;19112;51.076;3.706;2023-05-10T06:56:49;101006.03;;;18.95;80.12
32735;BME280;19112;51.076;3.706;2023-05-10T06:59:15;101000.72;;;18.92;79.73
32735;BME280;19112;51.076;3.706;2023-05-10T07:01:42;101045.09;;;19.37;79.45
32735;BME280;19112;51.076;3.706;2023-05-10T07:04:08;100920.84;;;18.59;78.67
32735;BME280;19112;51.076;3.706;2023-05-10T07:06:34;100943.91;;;18.65;77.71
32735;BME280;19112;51.076;3.706;2023-05-10T07:09:01;100988.25;;;18.71;77.40
32735;BME280;19112;51.076;3.706;2023-05-10T07:11:27;100899.44;;;18.15;77.56
32735;BME280;19112;51.076;3.706;2023-05-10T07:13:53;100978.38;;;18.41;76.98
32735;BME280;19112;51.076;3.706;2023-05-10T07:16:18;100994.34;;;18.41;77.07
32735;BME280;19112;51.076;3.706;2023-05-10T07:18:44;100962.34;;;18.16;77.34
32735;BME280;19112;51.076;3.706;2023-05-10T07:21:10;100899.34;;;17.83;77.74
32735;BME280;19112;51.076;3.706;2023-05-10T07:23:36;100968.59;;;18.24;77.37
32735;BME280;19112;51.076;3.706;2023-05-10T07:26:02;101041.41;;;18.65;77.92
32735;BME280;19112;51.076;3.706;2023-05-10T07:28:28;100895.75;;;17.73;76.81
32735;BME280;19112;51.076;3.706;2023-05-10T07:30:53;100932.13;;;17.88;76.72
32735;BME280;19112;51.076;3.706;2023-05-10T07:33:19;100960.59;;;18.20;77.29
32735;BME280;19112;51.076;3.706;2023-05-10T07:35:45;100898.44;;;17.84;77.40
32735;BME280;19112;51.076;3.706;2023-05-10T07:38:11;101001.38;;;18.29;77.33
32735;BME280;19112;51.076;3.706;2023-05-10T07:40:38;101071.59;;;18.70;76.63
32735;BME280;19112;51.076;3.706;2023-05-10T07:43:04;100962.31;;;18.01;77.21
32735;BME280;19112;51.076;3.706;2023-05-10T07:45:30;100743.00;;;16.70;77.56
32735;BME280;19112;51.076;3.706;2023-05-10T07:47:56;101075.06;;;18.64;77.66
32735;BME280;19112;51.076;3.706;2023-05-10T07:50:22;101073.28;;;18.57;77.83
32735;BME280;19112;51.076;3.706;2023-05-10T07:52:48;101031.53;;;18.33;77.21
32735;BME280;19112;51.076;3.706;2023-05-10T07:55:13;101074.16;;;18.57;77.36
32735;BME280;19112;51.076;3.706;2023-05-10T07:57:40;101066.13;;;18.38;76.58
32735;BME280;19112;51.076;3.706;2023-05-10T08:00:07;100801.56;;;17.02;76.67
32735;BME280;19112;51.076;3.706;2023-05-10T08:02:34;100947.25;;;18.09;77.90
32735;BME280;19112;51.076;3.706;2023-05-10T08:05:01;101019.28;;;18.72;78.12
32735;BME280;19112;51.076;3.706;2023-05-10T08:07:27;101030.00;;;19.13;77.94
32735;BME280;19112;51.076;3.706;2023-05-10T08:09:53;100887.13;;;18.43;76.07
32735;BME280;19112;51.076;3.706;2023-05-10T08:12:18;100998.06;;;19.16;75.62
32735;BME280;19112;51.076;3.706;2023-05-10T08:14:44;100821.53;;;18.30;73.88
32735;BME280;19112;51.076;3.706;2023-05-10T08:17:10;101048.69;;;19.62;74.18
32735;BME280;19112;51.076;3.706;2023-05-10T08:19:36;100965.25;;;19.02;73.88
32735;BME280;19112;51.076;3.706;2023-05-10T08:22:02;101017.59;;;19.30;73.63
32735;BME280;19112;51.076;3.706;2023-05-10T08:24:28;101023.81;;;19.45;72.96
32735;BME280;19112;51.076;3.706;2023-05-10T08:26:54;101061.13;;;19.66;72.64
32735;BME280;19112;51.076;3.706;2023-05-10T08:29:20;100985.63;;;19.21;70.31
32735;BME280;19112;51.076;3.706;2023-05-10T08:31:45;101069.06;;;19.58;70.01
32735;BME280;19112;51.076;3.706;2023-05-10T08:34:11;100991.84;;;19.08;69.84
32735;BME280;19112;51.076;3.706;2023-05-10T08:36:37;101085.94;;;19.47;71.16
32735;BME280;19112;51.076;3.706;2023-05-10T08:39:03;101047.75;;;19.25;70.85
32735;BME280;19112;51.076;3.706;2023-05-10T08:41:30;101121.47;;;19.55;72.06
32735;BME280;19112;51.076;3.706;2023-05-10T08:43:58;100968.69;;;18.64;71.96
32735;BME280;19112;51.076;3.706;2023-05-10T08:46:26;101114.34;;;19.40;71.83
32735;BME280;19112;51.076;3.706;2023-05-10T08:48:53;101038.84;;;18.92;73.20
32735;BME280;19112;51.076;3.706;2023-05-10T08:51:24;101047.75;;;19.02;73.07
32735;BME280;19112;51.076;3.706;2023-05-10T08:53:53;101124.09;;;19.49;73.12
32735;BME280;19112;51.076;3.706;2023-05-10T08:56:20;100844.50;;;17.96;71.96
32735;BME280;19112;51.076;3.706;2023-05-10T08:58:47;101084.16;;;19.43;70.94
32735;BME280;19112;51.076;3.706;2023-05-10T09:01:16;101125.94;;;19.62;72.07
32735;BME280;19112;51.076;3.706;2023-05-10T09:03:44;101086.81;;;19.30;71.71
32735;BME280;19112;51.076;3.706;2023-05-10T09:06:12;101013.09;;;18.82;70.70
32735;BME280;19112;51.076;3.706;2023-05-10T09:08:40;100885.22;;;17.98;72.08
32735;BME280;19112;51.076;3.706;2023-05-10T09:11:08;101014.78;;;18.60;72.33
32735;BME280;19112;51.076;3.706;2023-05-10T09:13:36;101127.59;;;19.09;72.35
32735;BME280;19112;51.076;3.706;2023-05-10T09:16:03;101044.13;;;18.77;72.23
32735;BME280;19112;51.076;3.706;2023-05-10T09:18:29;101116.06;;;19.21;72.91
32735;BME280;19112;51.076;3.706;2023-05-10T09:20:55;101152.50;;;19.34;72.64
32735;BME280;19112;51.076;3.706;2023-05-10T09:23:21;101105.44;;;19.18;71.32
32735;BME280;19112;51.076;3.706;2023-05-10T09:25:47;101072.56;;;18.99;70.62
32735;BME280;19112;51.076;3.706;2023-05-10T09:28:13;101119.66;;;19.32;70.87
32735;BME280;19112;51.076;3.706;2023-05-10T09:30:39;101044.16;;;18.92;70.45
32735;BME280;19112;51.076;3.706;2023-05-10T09:33:05;101102.78;;;19.43;68.05
32735;BME280;19112;51.076;3.706;2023-05-10T09:35:32;101107.28;;;19.68;67.47
32735;BME280;19112;51.076;3.706;2023-05-10T09:38:05;101117.06;;;19.94;68.87
32735;BME280;19112;51.076;3.706;2023-05-10T09:40:32;101140.06;;;20.39;69.68
32735;BME280;19112;51.076;3.706;2023-05-10T09:42:58;101143.59;;;20.55;69.39
32735;BME280;19112;51.076;3.706;2023-05-10T09:45:28;100949.19;;;19.74;66.26
32735;BME280;19112;51.076;3.706;2023-05-10T09:47:55;101036.97;;;20.35;68.12
32735;BME280;19112;51.076;3.706;2023-05-10T09:50:21;101002.25;;;20.46;65.13
32735;BME280;19112;51.076;3.706;2023-05-10T09:52:51;101152.09;;;21.47;66.30
32735;BME280;19112;51.076;3.706;2023-05-10T09:55:24;101083.69;;;21.22;66.23
32735;BME280;19112;51.076;3.706;2023-05-10T09:58:00;101085.44;;;21.23;66.35
32735;BME280;19112;51.076;3.706;2023-05-10T10:00:27;101082.69;;;21.38;64.64
32735;BME280;19112;51.076;3.706;2023-05-10T10:02:58;101102.94;;;21.66;64.39
32735;BME280;19112;51.076;3.706;2023-05-10T10:05:29;101122.34;;;21.88;62.64
32735;BME280;19112;51.076;3.706;2023-05-10T10:07:57;101029.28;;;21.38;63.39
32735;BME280;19112;51.076;3.706;2023-05-10T10:10:27;101044.03;;;21.80;61.71
32735;BME280;19112;51.076;3.706;2023-05-10T10:12:54;101028.84;;;21.85;61.46
32735;BME280;19112;51.076;3.706;2023-05-10T10:15:22;101082.81;;;22.24;61.47
32735;BME280;19112;51.076;3.706;2023-05-10T10:17:49;101081.66;;;22.46;61.37
32735;BME280;19112;51.076;3.706;2023-05-10T10:20:17;101153.00;;;23.23;61.13
32735;BME280;19112;51.076;3.706;2023-05-10T10:22:43;101118.06;;;23.27;60.25
32735;BME280;19112;51.076;3.706;2023-05-10T10:25:12;101145.00;;;23.80;58.46
32735;BME280;19112;51.076;3.706;2023-05-10T10:36:08;101159.75;;;23.50;56.88
32735;BME280;19112;51.076;3.706;2023-05-10T10:38:58;101017.59;;;22.37;58.88
32735;BME280;19112;51.076;3.706;2023-05-10T10:41:49;100942.59;;;21.66;58.38
32735;BME280;19112;51.076;3.706;2023-05-10T10:52:37;101120.81;;;22.55;57.95
32735;BME280;19112;51.076;3.706;2023-05-10T10:55:16;101123.69;;;22.38;57.64
32735;BME280;19112;51.076;3.706;2023-05-10T10:57:55;101128.50;;;21.98;59.47
32735;BME280;19112;51.076;3.706;2023-05-10T11:00:33;101090.75;;;21.36;61.11
32735;BME280;19112;51.076;3.706;2023-05-10T11:03:10;101104.03;;;21.42;61.87
32735;BME280;19112;51.076;3.706;2023-05-10T11:05:46;100955.06;;;20.61;63.13
32735;BME280;19112;51.076;3.706;2023-05-10T11:08:28;100886.88;;;20.10;61.04
32735;BME280;19112;51.076;3.706;2023-05-10T11:21:18;101102.72;;;20.39;63.24
32735;BME280;19112;51.076;3.706;2023-05-10T11:23:49;101100.06;;;20.39;63.48
32735;BME280;19112;51.076;3.706;2023-05-10T11:26:16;100997.19;;;19.66;64.07
32735;BME280;19112;51.076;3.706;2023-05-10T11:28:46;101172.91;;;20.65;65.06
32735;BME280;19112;51.076;3.706;2023-05-10T11:31:15;101109.00;;;20.18;64.15
32735;BME280;19112;51.076;3.706;2023-05-10T11:33:51;101149.88;;;20.26;62.62
32735;BME280;19112;51.076;3.706;2023-05-10T11:36:27;101180.97;;;20.49;64.56
32735;BME280;19112;51.076;3.706;2023-05-10T11:38:54;101111.69;;;20.20;67.20
32735;BME280;19112;51.076;3.706;2023-05-10T11:41:22;101134.69;;;20.56;67.91
32735;BME280;19112;51.076;3.706;2023-05-10T11:43:51;101099.16;;;20.58;67.91
32735;BME280;19112;51.076;3.706;2023-05-10T11:46:20;101101.66;;;20.95;67.04
32735;BME280;19112;51.076;3.706;2023-05-10T11:48:52;101098.81;;;21.18;66.36
32735;BME280;19112;51.076;3.706;2023-05-10T11:51:23;101067.47;;;21.49;65.90
32735;BME280;19112;51.076;3.706;2023-05-10T11:53:52;101135.59;;;22.05;63.55
32735;BME280;19112;51.076;3.706;2023-05-10T11:56:18;101160.25;;;22.39;62.91
32735;BME280;19112;51.076;3.706;2023-05-10T11:58:44;101161.63;;;22.75;61.74
32735;BME280;19112;51.076;3.706;2023-05-10T12:01:10;101101.84;;;22.73;59.51
32735;BME280;19112;51.076;3.706;2023-05-10T12:03:37;101167.97;;;23.36;60.16
32735;BME280;19112;51.076;3.706;2023-05-10T12:06:04;101117.84;;;23.43;58.73
32735;BME280;19112;51.076;3.706;2023-05-10T12:08:30;101119.72;;;23.38;59.37
32735;BME280;19112;51.076;3.706;2023-05-10T12:11:16;101116.16;;;23.37;59.74
32735;BME280;19112;51.076;3.706;2023-05-10T12:13:44;101111.78;;;23.33;59.57
32735;BME280;19112;51.076;3.706;2023-05-10T12:18:45;100991.78;;;22.96;58.09
32735;BME280;19112;51.076;3.706;2023-05-10T12:21:12;101136.28;;;23.67;58.63
32735;BME280;19112;51.076;3.706;2023-05-10T12:23:41;101145.25;;;23.63;58.37
32735;BME280;19112;51.076;3.706;2023-05-10T12:26:10;101072.94;;;23.02;60.83
32735;BME280;19112;51.076;3.706;2023-05-10T12:28:37;100886.41;;;21.74;60.30
32735;BME280;19112;51.076;3.706;2023-05-10T12:31:06;101111.53;;;22.85;58.93
32735;BME280;19112;51.076;3.706;2023-05-10T12:33:37;101097.66;;;22.54;61.36
32735;BME280;19112;51.076;3.706;2023-05-10T12:36:05;101144.13;;;22.45;61.84
32735;BME280;19112;51.076;3.706;2023-05-10T12:38:37;101152.38;;;22.21;63.05
32735;BME280;19112;51.076;3.706;2023-05-10T12:41:09;101136.59;;;21.89;63.75
32735;BME280;19112;51.076;3.706;2023-05-10T12:43:37;101074.84;;;21.09;65.80
32735;BME280;19112;51.076;3.706;2023-05-10T12:46:12;100963.25;;;20.20;64.92
32735;BME280;19112;51.076;3.706;2023-05-10T12:48:39;101120.41;;;20.78;66.46
32735;BME280;19112;51.076;3.706;2023-05-10T12:51:07;101092.94;;;20.38;67.69
32735;BME280;19112;51.076;3.706;2023-05-10T12:53:35;101128.53;;;20.23;68.96
32735;BME280;19112;51.076;3.706;2023-05-10T12:56:02;101088.63;;;19.74;70.30
32735;BME280;19112;51.076;3.706;2023-05-10T12:58:28;101189.00;;;19.87;72.21
32735;BME280;19112;51.076;3.706;2023-05-10T13:00:54;101077.00;;;19.06;73.74
32735;BME280;19112;51.076;3.706;2023-05-10T13:03:22;101164.03;;;19.30;75.40
32735;BME280;19112;51.076;3.706;2023-05-10T13:05:48;101083.97;;;18.66;76.57
32735;BME280;19112;51.076;3.706;2023-05-10T13:08:14;101113.28;;;18.72;77.78
32735;BME280;19112;51.076;3.706;2023-05-10T13:10:40;101192.31;;;18.98;79.31
32735;BME280;19112;51.076;3.706;2023-05-10T13:13:06;101057.97;;;18.09;79.96
32735;BME280;19112;51.076;3.706;2023-05-10T13:15:34;101114.88;;;18.38;80.58
32735;BME280;19112;51.076;3.706;2023-05-10T13:18:00;101191.34;;;18.82;80.61
32735;BME280;19112;51.076;3.706;2023-05-10T13:20:27;101121.94;;;18.38;81.57
32735;BME280;19112;51.076;3.706;2023-05-10T13:22:53;101186.03;;;18.80;81.67
32735;BME280;19112;51.076;3.706;2023-05-10T13:25:19;101080.19;;;18.17;82.38
32735;BME280;19112;51.076;3.706;2023-05-10T13:27:45;101098.00;;;18.35;82.57
32735;BME280;19112;51.076;3.706;2023-05-10T13:30:12;101121.13;;;18.51;83.07
32735;BME280;19112;51.076;3.706;2023-05-10T13:32:38;100948.72;;;17.55;83.61
32735;BME280;19112;51.076;3.706;2023-05-10T13:35:05;101137.22;;;18.71;83.88
32735;BME280;19112;51.076;3.706;2023-05-10T13:37:32;101163.91;;;18.94;84.15
32735;BME280;19112;51.076;3.706;2023-05-10T13:40:01;101026.19;;;18.28;83.27
32735;BME280;19112;51.076;3.706;2023-05-10T13:42:27;101009.38;;;18.36;82.59